createdAt,value
2023-02-09T00:00:20.733Z,2.70
2023-02-09T00:02:47.672Z,2.70
2023-02-09T00:05:14.650Z,2.70
2023-02-09T00:07:41.586Z,2.70
2023-02-09T00:10:08.903Z,2.70
2023-02-09T00:12:56.015Z,2.80
2023-02-09T00:15:22.934Z,2.80
2023-02-09T00:17:49.891Z,2.80
2023-02-09T00:20:17.062Z,2.90
2023-02-09T00:22:44.014Z,2.90
2023-02-09T00:25:11.022Z,2.90
2023-02-09T00:27:37.974Z,2.90
2023-02-09T00:30:05.495Z,2.90
2023-02-09T00:32:33.304Z,2.90
2023-02-09T00:35:00.349Z,2.80
2023-02-09T00:37:27.263Z,2.80
2023-02-09T00:39:54.204Z,2.80
2023-02-09T00:42:21.137Z,2.80
2023-02-09T00:44:48.153Z,2.70
2023-02-09T00:47:15.167Z,2.60
2023-02-09T00:49:42.093Z,2.50
2023-02-09T00:52:10.156Z,2.50
2023-02-09T00:54:37.495Z,2.40
2023-02-09T00:57:07.582Z,2.40
2023-02-09T00:59:35.916Z,2.40
2023-02-09T01:02:03.967Z,2.30
2023-02-09T01:04:31.002Z,2.30
2023-02-09T01:06:58.137Z,2.30
2023-02-09T01:09:25.696Z,2.30
2023-02-09T01:11:52.778Z,2.20
2023-02-09T01:14:19.969Z,2.20
2023-02-09T01:16:46.973Z,2.20
2023-02-09T01:19:14.438Z,2.20
2023-02-09T01:21:42.129Z,2.20
2023-02-09T01:24:13.441Z,2.10
2023-02-09T01:26:41.020Z,2.10
2023-02-09T01:29:14.843Z,2.20
2023-02-09T01:31:42.442Z,2.20
2023-02-09T01:34:13.113Z,2.20
2023-02-09T01:36:40.235Z,2.20
2023-02-09T01:39:07.505Z,2.20
2023-02-09T01:41:35.028Z,2.20
2023-02-09T01:44:12.148Z,2.30
2023-02-09T01:46:39.748Z,2.30
2023-02-09T01:49:20.306Z,2.30
2023-02-09T01:52:10.806Z,2.30
2023-02-09T01:54:40.505Z,2.40
2023-02-09T01:57:29.573Z,2.30
2023-02-09T02:00:09.276Z,2.30
2023-02-09T02:02:37.281Z,2.10
2023-02-09T02:05:06.247Z,2.00
2023-02-09T02:07:47.696Z,2.00
2023-02-09T02:10:14.991Z,2.00
2023-02-09T02:12:42.513Z,2.00
2023-02-09T02:15:09.989Z,2.10
2023-02-09T02:18:15.072Z,2.10
2023-02-09T02:21:12.497Z,2.30
2023-02-09T02:24:23.436Z,2.30
2023-02-09T02:27:10.016Z,2.20
2023-02-09T02:29:48.006Z,2.20
2023-02-09T02:32:45.130Z,2.10
2023-02-09T02:35:50.411Z,2.00
2023-02-09T02:38:25.247Z,2.10
2023-02-09T02:41:14.934Z,2.20
2023-02-09T02:44:05.640Z,2.20
2023-02-09T02:46:36.415Z,2.40
2023-02-09T02:49:15.299Z,2.40
2023-02-09T02:51:47.847Z,2.40
2023-02-09T02:54:22.068Z,2.40
2023-02-09T02:57:16.805Z,2.50
2023-02-09T02:59:51.395Z,2.60
2023-02-09T03:02:22.684Z,2.70
2023-02-09T03:04:53.086Z,2.70
2023-02-09T03:07:20.262Z,2.80
2023-02-09T03:09:51.678Z,2.80
2023-02-09T03:12:35.076Z,2.90
2023-02-09T03:15:32.232Z,3.00
2023-02-09T03:18:23.469Z,3.00
2023-02-09T03:21:11.204Z,3.00
2023-02-09T03:24:01.521Z,3.00
2023-02-09T03:26:33.555Z,3.00
2023-02-09T03:29:02.278Z,2.90
2023-02-09T03:31:30.329Z,2.90
2023-02-09T03:33:58.517Z,2.90
2023-02-09T03:36:31.585Z,2.90
2023-02-09T03:38:58.508Z,2.80
2023-02-09T03:41:25.573Z,2.80
2023-02-09T03:44:10.833Z,2.80
2023-02-09T03:46:37.764Z,2.80
2023-02-09T03:49:04.706Z,2.80
2023-02-09T03:51:31.671Z,2.80
2023-02-09T03:53:58.652Z,2.80
2023-02-09T03:56:25.781Z,2.80
2023-02-09T03:58:52.814Z,2.80
2023-02-09T04:01:19.730Z,2.80
2023-02-09T04:03:46.663Z,2.80
2023-02-09T04:06:13.781Z,2.80
2023-02-09T04:08:43.163Z,2.90
2023-02-09T04:11:10.287Z,2.90
2023-02-09T04:13:37.248Z,2.90
2023-02-09T04:16:04.411Z,2.80
2023-02-09T04:18:31.392Z,2.80
2023-02-09T04:20:58.464Z,2.80
2023-02-09T04:23:25.486Z,2.90
2023-02-09T04:25:52.410Z,2.90
2023-02-09T04:28:19.409Z,2.90
2023-02-09T04:30:51.377Z,2.90
2023-02-09T04:33:18.313Z,2.90
2023-02-09T04:35:45.679Z,3.00
2023-02-09T04:38:12.585Z,2.90
2023-02-09T04:40:39.647Z,2.90
2023-02-09T04:43:06.621Z,2.90
2023-02-09T04:45:33.600Z,2.80
2023-02-09T04:48:00.596Z,2.80
2023-02-09T04:50:27.552Z,2.70
2023-02-09T04:52:54.468Z,2.70
2023-02-09T04:55:21.490Z,2.70
2023-02-09T04:58:06.813Z,2.70
2023-02-09T05:00:33.772Z,2.60
2023-02-09T05:03:00.785Z,2.60
2023-02-09T05:05:27.942Z,2.60
2023-02-09T05:07:54.911Z,2.60
2023-02-09T05:10:21.828Z,2.70
2023-02-09T05:12:48.754Z,2.70
2023-02-09T05:15:15.824Z,2.70
2023-02-09T05:17:42.895Z,2.70
2023-02-09T05:20:10.640Z,2.70
2023-02-09T05:22:38.406Z,2.70
2023-02-09T05:25:05.898Z,2.70
2023-02-09T05:27:32.886Z,2.70
2023-02-09T05:29:59.842Z,2.80
2023-02-09T05:32:26.769Z,2.80
2023-02-09T05:34:53.914Z,2.70
2023-02-09T05:37:20.913Z,2.80
2023-02-09T05:39:47.993Z,2.80
2023-02-09T05:42:17.943Z,2.80
2023-02-09T05:44:49.974Z,2.80
2023-02-09T05:47:19.928Z,2.80
2023-02-09T05:49:47.369Z,2.80
2023-02-09T05:52:16.790Z,2.80
2023-02-09T05:54:44.080Z,2.80
2023-02-09T05:57:11.035Z,2.80
2023-02-09T05:59:38.050Z,2.70
2023-02-09T06:02:05.140Z,2.80
2023-02-09T06:04:32.716Z,2.70
2023-02-09T06:06:59.966Z,2.70
2023-02-09T06:09:27.147Z,2.70
2023-02-09T06:11:54.123Z,2.60
2023-02-09T06:14:21.201Z,2.60
2023-02-09T06:16:48.154Z,2.60
2023-02-09T06:19:17.773Z,2.60
2023-02-09T06:21:45.117Z,2.60
2023-02-09T06:24:13.211Z,2.60
2023-02-09T06:26:41.200Z,2.50
2023-02-09T06:29:09.606Z,2.50
2023-02-09T06:31:37.333Z,2.40
2023-02-09T06:34:05.879Z,2.40
2023-02-09T06:36:33.036Z,2.40
2023-02-09T06:39:00.571Z,2.40
2023-02-09T06:41:27.591Z,2.40
2023-02-09T06:43:54.514Z,2.40
2023-02-09T06:46:21.552Z,2.40
2023-02-09T06:48:48.870Z,2.50
2023-02-09T06:51:17.162Z,2.60
2023-02-09T06:53:44.662Z,2.50
2023-02-09T06:56:12.771Z,2.60
2023-02-09T06:58:40.885Z,2.50
2023-02-09T07:01:10.939Z,2.70
2023-02-09T07:03:38.468Z,2.70
2023-02-09T07:06:11.606Z,2.80
2023-02-09T07:08:38.823Z,2.80
2023-02-09T07:11:08.880Z,3.00
2023-02-09T07:13:36.070Z,3.00
2023-02-09T07:16:05.657Z,3.00
2023-02-09T07:18:33.050Z,3.10
2023-02-09T07:21:03.032Z,3.00
2023-02-09T07:23:30.348Z,3.00
2023-02-09T07:26:01.056Z,3.00
2023-02-09T07:28:28.078Z,3.00
2023-02-09T07:30:55.146Z,3.00
2023-02-09T07:33:22.700Z,3.00
2023-02-09T07:35:49.714Z,3.00
2023-02-09T07:38:16.911Z,3.10
2023-02-09T07:40:47.238Z,3.00
2023-02-09T07:43:14.454Z,3.10
2023-02-09T07:45:42.026Z,3.10
2023-02-09T07:48:12.050Z,3.20
2023-02-09T07:50:39.258Z,3.20
2023-02-09T07:53:06.154Z,3.20
2023-02-09T07:55:33.101Z,3.30
2023-02-09T07:58:00.178Z,3.30
2023-02-09T08:00:27.172Z,3.30
2023-02-09T08:02:54.929Z,3.40
2023-02-09T08:05:34.794Z,3.40
2023-02-09T08:08:02.134Z,3.50
2023-02-09T08:10:29.189Z,3.60
2023-02-09T08:13:03.627Z,3.60
2023-02-09T08:15:48.655Z,3.80
2023-02-09T08:18:25.491Z,3.80
2023-02-09T08:20:53.614Z,3.90
2023-02-09T08:23:24.776Z,4.00
2023-02-09T08:25:52.164Z,4.00
2023-02-09T08:28:20.749Z,4.00
2023-02-09T08:30:49.778Z,4.00
2023-02-09T08:33:17.062Z,4.10
2023-02-09T08:35:44.613Z,4.20
2023-02-09T08:38:11.738Z,4.40
2023-02-09T08:40:44.234Z,4.40
2023-02-09T08:43:13.064Z,4.40
2023-02-09T08:45:41.813Z,4.40
2023-02-09T08:48:10.358Z,4.40
2023-02-09T08:50:39.672Z,4.50
2023-02-09T08:53:07.220Z,4.60
2023-02-09T08:55:37.524Z,4.70
2023-02-09T08:58:05.067Z,5.10
2023-02-09T09:00:32.465Z,5.30
2023-02-09T09:02:59.607Z,5.40
2023-02-09T09:05:26.712Z,5.50
2023-02-09T09:07:53.866Z,5.50
2023-02-09T09:10:20.917Z,5.60
2023-02-09T09:12:48.060Z,5.80
2023-02-09T09:15:15.139Z,6.00
2023-02-09T09:17:42.312Z,6.20
2023-02-09T09:20:10.002Z,6.30
2023-02-09T09:22:37.100Z,6.30
2023-02-09T09:25:04.947Z,6.30
2023-02-09T09:27:38.031Z,6.40
2023-02-09T09:30:05.836Z,6.40
2023-02-09T09:32:32.974Z,6.40
2023-02-09T09:35:00.070Z,6.60
2023-02-09T09:37:27.386Z,6.90
2023-02-09T09:39:54.427Z,7.00
2023-02-09T09:42:27.333Z,7.20
2023-02-09T09:44:54.961Z,7.30
2023-02-09T09:47:34.632Z,7.30
2023-02-09T09:50:01.733Z,7.40
2023-02-09T09:52:38.504Z,7.40
2023-02-09T09:55:13.693Z,7.60
2023-02-09T09:57:44.500Z,7.70
2023-02-09T10:00:20.843Z,7.90
2023-02-09T10:02:48.352Z,8.10
2023-02-09T10:05:18.843Z,8.40
2023-02-09T10:07:54.163Z,8.50
2023-02-09T10:10:45.227Z,8.50
2023-02-09T10:13:34.513Z,8.90
2023-02-09T10:16:02.484Z,8.90
2023-02-09T10:18:31.157Z,9.00
2023-02-09T10:21:10.954Z,9.00
2023-02-09T10:23:47.186Z,9.00
2023-02-09T10:26:43.613Z,8.70
2023-02-09T10:29:13.336Z,8.80
2023-02-09T10:32:10.714Z,9.20
2023-02-09T10:34:45.077Z,9.30
2023-02-09T10:37:47.618Z,9.30
2023-02-09T10:40:41.057Z,9.20
2023-02-09T10:43:24.328Z,9.20
2023-02-09T10:46:01.151Z,8.80
2023-02-09T10:48:29.128Z,8.60
2023-02-09T10:51:07.577Z,8.50
2023-02-09T10:54:00.012Z,8.30
2023-02-09T10:56:49.294Z,8.20
2023-02-09T10:59:19.802Z,8.20
2023-02-09T11:02:01.835Z,8.20
2023-02-09T11:04:48.858Z,8.10
2023-02-09T11:07:22.936Z,8.30
2023-02-09T11:09:52.681Z,8.70
2023-02-09T11:12:23.068Z,8.80
2023-02-09T11:14:50.303Z,9.00
2023-02-09T11:17:40.184Z,9.30
2023-02-09T11:20:36.324Z,9.50
2023-02-09T11:23:18.459Z,9.70
2023-02-09T11:25:54.780Z,9.80
2023-02-09T11:28:46.477Z,9.90
2023-02-09T11:32:06.265Z,10.10
2023-02-09T11:34:52.843Z,10.00
2023-02-09T11:37:37.022Z,9.50
2023-02-09T11:40:22.337Z,9.50
2023-02-09T11:43:06.979Z,9.20
2023-02-09T11:45:42.359Z,9.00
2023-02-09T11:48:18.207Z,8.80
2023-02-09T11:51:03.424Z,8.80
2023-02-09T11:53:49.159Z,9.00
2023-02-09T11:56:27.405Z,9.20
2023-02-09T11:59:03.748Z,9.50
2023-02-09T12:01:55.011Z,9.90
2023-02-09T12:04:45.398Z,10.30
2023-02-09T12:07:21.312Z,10.30
2023-02-09T12:10:08.666Z,10.60
2023-02-09T12:12:52.547Z,10.70
2023-02-09T12:15:31.716Z,10.60
2023-02-09T12:18:04.099Z,10.80
2023-02-09T12:20:36.819Z,10.80
2023-02-09T12:23:25.528Z,10.80
2023-02-09T12:26:00.071Z,10.60
2023-02-09T12:28:30.228Z,10.90
2023-02-09T12:31:08.249Z,10.90
2023-02-09T12:33:37.905Z,11.00
2023-02-09T12:36:09.717Z,10.80
2023-02-09T12:38:56.593Z,10.30
2023-02-09T12:41:24.002Z,9.80
2023-02-09T12:44:04.633Z,10.00
2023-02-09T12:46:31.826Z,10.20
2023-02-09T12:49:01.761Z,10.20
2023-02-09T12:51:46.686Z,10.10
2023-02-09T12:54:36.456Z,10.20
2023-02-09T12:57:15.769Z,9.90
2023-02-09T13:00:01.118Z,9.60
2023-02-09T13:02:50.538Z,9.70
2023-02-09T13:05:30.954Z,9.90
2023-02-09T13:08:13.337Z,9.90
2023-02-09T13:10:53.097Z,10.00
2023-02-09T13:13:44.116Z,10.10
2023-02-09T13:16:23.885Z,9.90
2023-02-09T13:19:10.853Z,9.60
2023-02-09T13:21:56.730Z,9.60
2023-02-09T13:25:09.862Z,9.30
2023-02-09T13:27:45.647Z,9.30
2023-02-09T13:30:35.789Z,9.30
2023-02-09T13:33:28.239Z,9.40
2023-02-09T13:35:55.177Z,9.30
2023-02-09T13:38:30.041Z,9.30
2023-02-09T13:40:58.332Z,9.50
2023-02-09T13:43:35.986Z,9.40
2023-02-09T13:46:03.908Z,9.50
2023-02-09T13:48:37.628Z,9.60
2023-02-09T13:51:15.048Z,9.80
2023-02-09T13:53:55.018Z,9.70
2023-02-09T13:56:22.557Z,9.70
2023-02-09T13:58:50.088Z,9.60
2023-02-09T14:01:21.237Z,9.60
2023-02-09T14:04:03.990Z,9.60
2023-02-09T14:06:38.735Z,9.50
2023-02-09T14:09:11.860Z,9.40
2023-02-09T14:11:43.449Z,9.30
2023-02-09T14:14:18.052Z,9.30
2023-02-09T14:16:53.357Z,9.10
2023-02-09T14:19:31.486Z,8.90
2023-02-09T14:21:58.723Z,8.80
2023-02-09T14:24:28.075Z,8.90
2023-02-09T14:26:56.896Z,8.80
2023-02-09T14:29:30.401Z,8.90
2023-02-09T14:32:00.364Z,8.80
2023-02-09T14:34:40.304Z,8.80
2023-02-09T14:37:13.595Z,8.60
2023-02-09T14:39:57.718Z,8.50
2023-02-09T14:42:24.883Z,8.50
2023-02-09T14:44:55.990Z,8.50
2023-02-09T14:47:30.479Z,8.50
2023-02-09T14:49:59.683Z,8.50
2023-02-09T14:52:29.040Z,8.70
2023-02-09T14:55:00.641Z,8.90
2023-02-09T14:57:28.817Z,9.00
2023-02-09T14:59:58.560Z,9.00
2023-02-09T15:02:27.649Z,9.10
2023-02-09T15:04:55.523Z,9.20
2023-02-09T15:07:36.000Z,9.20
2023-02-09T15:10:05.968Z,9.40
2023-02-09T15:12:33.572Z,9.30
2023-02-09T15:15:01.912Z,9.60
2023-02-09T15:17:31.145Z,9.60
2023-02-09T15:20:01.168Z,9.60
2023-02-09T15:22:31.513Z,9.60
2023-02-09T15:24:58.641Z,9.30
2023-02-09T15:27:34.227Z,9.20
2023-02-09T15:30:04.334Z,9.10
2023-02-09T15:32:31.777Z,9.20
2023-02-09T15:34:58.730Z,9.20
2023-02-09T15:37:33.586Z,8.90
2023-02-09T15:40:13.819Z,8.80
2023-02-09T15:43:02.672Z,8.60
2023-02-09T15:45:48.844Z,8.60
2023-02-09T15:48:15.857Z,8.40
2023-02-09T15:50:47.328Z,8.40
2023-02-09T15:53:21.939Z,8.30
2023-02-09T15:55:48.973Z,8.20
2023-02-09T15:58:24.007Z,8.20
2023-02-09T16:00:50.949Z,8.20
2023-02-09T16:03:20.091Z,8.20
2023-02-09T16:05:50.266Z,8.20
2023-02-09T16:08:26.976Z,8.10
2023-02-09T16:10:54.849Z,7.90
2023-02-09T16:13:21.974Z,7.90
2023-02-09T16:15:49.200Z,7.90
2023-02-09T16:18:16.228Z,7.90
2023-02-09T16:20:47.255Z,7.80
2023-02-09T16:23:21.740Z,7.80
2023-02-09T16:25:53.185Z,7.90
2023-02-09T16:28:21.965Z,7.90
2023-02-09T16:30:54.722Z,7.80
2023-02-09T16:33:23.387Z,7.90
2023-02-09T16:36:15.514Z,7.80
2023-02-09T16:38:42.918Z,7.70
2023-02-09T16:41:32.485Z,7.60
2023-02-09T16:44:12.573Z,7.50
2023-02-09T16:46:39.703Z,7.50
2023-02-09T16:49:06.749Z,7.40
2023-02-09T16:51:35.191Z,7.30
2023-02-09T16:54:04.616Z,7.30
2023-02-09T16:56:32.169Z,7.20
2023-02-09T16:58:59.098Z,7.10
2023-02-09T17:01:26.172Z,7.00
2023-02-09T17:03:56.094Z,7.00
2023-02-09T17:06:27.400Z,7.00
2023-02-09T17:08:56.659Z,6.80
2023-02-09T17:11:26.272Z,6.80
2023-02-09T17:13:53.405Z,6.70
2023-02-09T17:16:29.117Z,6.70
2023-02-09T17:19:00.647Z,6.70
2023-02-09T17:21:31.586Z,6.80
2023-02-09T17:23:58.731Z,6.70
2023-02-09T17:26:26.086Z,6.80
2023-02-09T17:28:53.177Z,6.70
2023-02-09T17:31:26.635Z,6.80
2023-02-09T17:33:56.937Z,6.90
2023-02-09T17:36:27.335Z,6.90
2023-02-09T17:38:59.682Z,6.90
2023-02-09T17:41:43.153Z,7.00
2023-02-09T17:44:29.132Z,7.10
2023-02-09T17:47:06.228Z,7.10
2023-02-09T17:49:34.233Z,7.10
2023-02-09T17:52:01.316Z,7.20
2023-02-09T17:54:28.398Z,7.30
2023-02-09T17:56:55.328Z,7.30
2023-02-09T17:59:22.232Z,7.20
2023-02-09T18:01:50.394Z,7.40
2023-02-09T18:04:20.462Z,7.40
2023-02-09T18:06:47.877Z,7.40
2023-02-09T18:09:15.046Z,7.30
2023-02-09T18:11:57.110Z,7.40
2023-02-09T18:14:25.793Z,7.30
2023-02-09T18:16:54.036Z,7.20
2023-02-09T18:19:22.469Z,7.20
2023-02-09T18:21:55.260Z,7.20
2023-02-09T18:24:24.097Z,7.20
2023-02-09T18:26:51.229Z,7.30
2023-02-09T18:29:20.395Z,7.20
2023-02-09T18:31:47.537Z,7.10
2023-02-09T18:34:15.689Z,7.10
2023-02-09T18:36:42.845Z,7.00
2023-02-09T18:39:09.827Z,7.10
2023-02-09T18:41:36.769Z,7.10
2023-02-09T18:44:03.762Z,7.20
2023-02-09T18:46:30.799Z,7.10
2023-02-09T18:48:57.848Z,7.00
2023-02-09T18:51:25.086Z,7.10
2023-02-09T18:53:52.430Z,7.00
2023-02-09T18:56:21.450Z,7.00
2023-02-09T18:58:50.739Z,7.00
2023-02-09T19:01:20.678Z,7.00
2023-02-09T19:03:54.450Z,7.10
2023-02-09T19:06:22.672Z,7.00
2023-02-09T19:08:50.566Z,7.00
2023-02-09T19:11:20.233Z,7.00
2023-02-09T19:14:07.649Z,7.00
2023-02-09T19:16:37.999Z,7.00
2023-02-09T19:19:05.151Z,6.90
2023-02-09T19:21:32.401Z,6.90
2023-02-09T19:23:59.452Z,7.00
2023-02-09T19:26:26.395Z,7.00
2023-02-09T19:28:55.829Z,7.00
2023-02-09T19:31:22.869Z,6.90
2023-02-09T19:33:49.852Z,6.90
2023-02-09T19:36:16.773Z,6.90
2023-02-09T19:38:43.697Z,6.90
2023-02-09T19:41:12.612Z,6.90
2023-02-09T19:43:42.701Z,6.90
2023-02-09T19:46:13.305Z,6.90
2023-02-09T19:48:40.876Z,6.90
2023-02-09T19:51:08.806Z,6.80
2023-02-09T19:53:36.088Z,6.80
2023-02-09T19:56:03.258Z,6.70
2023-02-09T19:58:30.583Z,6.70
2023-02-09T20:00:57.626Z,6.60
2023-02-09T20:03:25.127Z,6.60
2023-02-09T20:05:52.102Z,6.50
2023-02-09T20:08:19.730Z,6.40
2023-02-09T20:10:47.395Z,6.30
2023-02-09T20:13:15.353Z,6.30
2023-02-09T20:15:44.248Z,6.30
2023-02-09T20:18:13.401Z,6.20
2023-02-09T20:20:43.266Z,6.20
2023-02-09T20:23:10.725Z,6.10
2023-02-09T20:25:41.782Z,6.10
2023-02-09T20:28:09.255Z,6.00
2023-02-09T20:30:39.902Z,5.90
2023-02-09T20:33:06.931Z,5.90
2023-02-09T20:35:33.840Z,6.00
2023-02-09T20:38:00.801Z,6.00
2023-02-09T20:40:27.732Z,5.90
2023-02-09T20:43:13.315Z,5.90
2023-02-09T20:45:58.713Z,5.90
2023-02-09T20:48:25.775Z,6.00
2023-02-09T20:50:52.740Z,6.10
2023-02-09T20:53:19.675Z,6.10
2023-02-09T20:55:46.674Z,6.10
2023-02-09T20:58:14.096Z,6.10
2023-02-09T21:00:42.639Z,6.10
2023-02-09T21:03:09.708Z,6.10
2023-02-09T21:05:36.645Z,6.10
2023-02-09T21:08:04.606Z,6.00
2023-02-09T21:10:35.919Z,6.00
2023-02-09T21:13:05.153Z,6.00
2023-02-09T21:15:32.740Z,6.00
2023-02-09T21:17:59.822Z,5.90
2023-02-09T21:20:26.934Z,5.90
2023-02-09T21:22:54.033Z,5.90
2023-02-09T21:25:21.055Z,5.80
2023-02-09T21:27:47.996Z,5.80
2023-02-09T21:30:16.572Z,5.70
2023-02-09T21:32:43.655Z,5.70
2023-02-09T21:35:11.180Z,5.60
2023-02-09T21:37:39.016Z,5.60
2023-02-09T21:40:07.191Z,5.60
2023-02-09T21:42:35.647Z,5.50
2023-02-09T21:45:03.499Z,5.50
2023-02-09T21:47:33.868Z,5.50
2023-02-09T21:50:01.491Z,5.50
2023-02-09T21:52:30.036Z,5.50
2023-02-09T21:54:57.156Z,5.50
2023-02-09T21:57:24.189Z,5.50
2023-02-09T21:59:51.294Z,5.50
2023-02-09T22:02:19.287Z,5.50
2023-02-09T22:04:47.293Z,5.50
2023-02-09T22:07:14.943Z,5.50
2023-02-09T22:09:42.164Z,5.60
2023-02-09T22:12:09.510Z,5.60
2023-02-09T22:14:36.596Z,5.70
2023-02-09T22:17:05.004Z,5.80
2023-02-09T22:19:31.948Z,5.70
2023-02-09T22:21:58.856Z,5.70
2023-02-09T22:24:26.168Z,5.70
2023-02-09T22:26:53.226Z,5.70
2023-02-09T22:29:20.399Z,5.60
2023-02-09T22:31:47.603Z,5.70
2023-02-09T22:34:14.541Z,5.70
2023-02-09T22:36:41.515Z,5.70
2023-02-09T22:39:09.133Z,5.70
2023-02-09T22:41:36.485Z,5.60
2023-02-09T22:44:06.404Z,5.60
2023-02-09T22:46:39.541Z,5.60
2023-02-09T22:49:15.678Z,5.60
2023-02-09T22:51:42.961Z,5.70
2023-02-09T22:54:10.181Z,5.70
2023-02-09T22:56:37.088Z,5.80
2023-02-09T22:59:04.294Z,5.90
2023-02-09T23:01:31.732Z,5.90
2023-02-09T23:03:58.999Z,5.90
2023-02-09T23:06:28.187Z,5.90
2023-02-09T23:08:57.073Z,5.90
2023-02-09T23:11:24.556Z,5.90
2023-02-09T23:14:07.025Z,5.90
2023-02-09T23:16:36.045Z,5.80
2023-02-09T23:19:05.868Z,5.80
2023-02-09T23:21:36.573Z,5.80
2023-02-09T23:24:04.379Z,5.90
2023-02-09T23:26:31.619Z,5.90
2023-02-09T23:29:00.955Z,5.90
2023-02-09T23:31:28.374Z,5.90
2023-02-09T23:33:55.828Z,5.90
2023-02-09T23:36:27.776Z,5.90
2023-02-09T23:39:00.408Z,5.90
2023-02-09T23:41:28.538Z,5.90
2023-02-09T23:43:56.222Z,5.80
2023-02-09T23:46:27.933Z,5.80
2023-02-09T23:48:56.401Z,5.70
2023-02-09T23:51:26.780Z,5.70
2023-02-09T23:53:55.310Z,5.70
2023-02-09T23:56:22.598Z,5.60
2023-02-09T23:58:51.459Z,5.60
